Time;durP1;ratioP1;P1;durP2;ratioP2;P2;SDS_P1;SDS_P2;PMS_P1;PMS_P2;Temp;Humidity;BMP_temperature;BMP_pressure;BME280_temperature;BME280_humidity;BME280_pressure;Samples;Min_cycle;Max_cycle;Signal;HPM_P1;HPM_P2
2023/12/17 00:01:16;;;;;;;8.37;4.77;;;3.50;83.70;;;5.46;59.74;99854.84;5032361;28;20045;-51
2023/12/17 00:03:44;;;;;;;5.43;4.03;;;3.50;83.80;;;5.49;59.59;99845.00;5038095;28;20041;-50
2023/12/17 00:06:12;;;;;;;10.50;3.90;;;3.50;82.70;;;5.49;58.78;99838.88;5024271;28;20041;-49
2023/12/17 00:08:40;;;;;;;5.90;4.00;;;3.50;83.20;;;5.48;59.15;99845.91;5036818;28;20045;-52
2023/12/17 00:11:08;;;;;;;7.87;4.77;;;3.50;83.20;;;5.48;59.15;99837.16;5032184;28;20493;-51
2023/12/17 00:13:36;;;;;;;8.10;4.30;;;3.50;83.30;;;5.48;59.08;99848.56;5032420;28;20058;-51
2023/12/17 00:16:04;;;;;;;6.87;4.53;;;3.50;83.40;;;5.49;59.38;99860.00;5031791;28;20052;-53
2023/12/17 00:18:33;;;;;;;11.53;4.70;;;3.60;83.10;;;5.51;59.08;99868.72;5035869;28;20429;-51
2023/12/17 00:21:01;;;;;;;5.63;3.90;;;3.50;82.90;;;5.51;58.89;99872.19;5031774;28;20041;-51
2023/12/17 00:23:29;;;;;;;6.80;4.00;;;3.50;82.90;;;5.53;59.27;99875.63;5030502;28;20488;-51
2023/12/17 00:25:56;;;;;;;6.63;4.00;;;3.60;82.90;;;5.55;59.62;99872.91;5031147;28;20041;-51
2023/12/17 00:28:24;;;;;;;7.73;4.87;;;3.60;82.20;;;5.57;58.58;99880.78;5035689;28;20057;-50
2023/12/17 00:30:51;;;;;;;14.43;8.67;;;3.60;82.40;;;5.56;58.89;99881.69;5031702;28;20052;-50
2023/12/17 00:33:19;;;;;;;16.03;9.07;;;3.60;82.60;;;5.53;59.00;99870.34;5035838;28;20045;-53
2023/12/17 00:35:47;;;;;;;10.07;5.63;;;3.60;82.30;;;5.48;59.12;99864.41;5030908;28;20046;-48
2023/12/17 00:38:15;;;;;;;12.17;7.63;;;3.50;81.80;;;5.45;59.15;99875.16;5026898;28;20409;-50
2023/12/17 00:40:42;;;;;;;15.43;9.40;;;3.50;82.50;;;5.44;59.08;99883.13;5031485;28;20053;-52
2023/12/17 00:43:10;;;;;;;15.60;9.20;;;3.50;82.50;;;5.43;59.40;99887.56;5031494;28;20053;-49
2023/12/17 00:45:37;;;;;;;13.37;8.37;;;3.50;82.90;;;5.45;59.07;99877.78;5030997;28;20494;-50
2023/12/17 00:48:05;;;;;;;20.60;11.07;;;3.50;82.80;;;5.46;58.79;99881.28;5033932;28;20048;-49
2023/12/17 00:50:34;;;;;;;20.17;11.27;;;3.50;82.50;;;5.45;59.15;99875.16;5031683;28;20045;-48
2023/12/17 00:53:02;;;;;;;20.07;12.47;;;3.50;82.60;;;5.43;58.73;99874.38;5030177;28;20624;-52
2023/12/17 00:55:29;;;;;;;25.37;11.80;;;3.50;81.80;;;5.40;58.78;99871.84;5029499;28;20045;-47
2023/12/17 00:57:57;;;;;;;26.77;11.07;;;3.40;82.00;;;5.33;58.48;99862.50;5033388;28;20243;-50
2023/12/17 01:00:25;;;;;;;17.80;10.47;;;3.20;82.30;;;5.27;58.17;99857.53;5031271;28;20046;-51
2023/12/17 01:02:53;;;;;;;21.77;11.40;;;3.10;82.90;;;5.22;58.25;99860.41;5031003;28;20056;-49
2023/12/17 01:05:20;;;;;;;23.43;12.33;;;3.10;83.30;;;5.21;59.21;99863.09;5029439;28;20053;-50
2023/12/17 01:07:48;;;;;;;22.97;12.73;;;3.10;83.70;;;5.17;58.45;99867.69;5028655;28;20053;-53
2023/12/17 01:10:16;;;;;;;20.17;10.67;;;3.10;83.50;;;5.11;58.97;99868.81;5029903;28;20033;-49
2023/12/17 01:12:44;;;;;;;18.10;10.97;;;3.00;83.50;;;5.07;58.64;99869.03;5030905;28;20053;-52
2023/12/17 01:15:12;;;;;;;19.77;11.30;;;2.90;84.30;;;5.05;58.63;99871.75;5031467;28;20053;-52
2023/12/17 01:17:40;;;;;;;18.83;10.47;;;2.90;84.30;;;5.04;58.79;99871.81;5030651;28;20045;-50
2023/12/17 01:20:08;;;;;;;16.17;10.13;;;2.90;84.30;;;5.00;58.66;99876.41;5029733;28;20424;-51
2023/12/17 01:22:36;;;;;;;13.33;7.17;;;2.90;84.20;;;5.00;59.18;99872.91;5031044;28;20042;-49
2023/12/17 01:25:05;;;;;;;14.77;8.43;;;2.90;84.30;;;4.96;58.53;99880.09;5032435;28;20049;-53
2023/12/17 01:27:33;;;;;;;14.27;8.00;;;2.80;84.10;;;4.95;59.46;99882.84;5031166;28;20037;-52
2023/12/17 01:30:01;;;;;;;14.73;7.37;;;2.90;85.10;;;4.93;59.51;99874.97;5030758;28;20041;-50
2023/12/17 01:32:28;;;;;;;12.27;7.30;;;2.90;84.50;;;4.91;58.60;99876.84;5030989;28;20044;-51
2023/12/17 01:34:56;;;;;;;12.20;6.93;;;2.80;83.80;;;4.87;59.53;99880.53;5030606;28;20504;-50
2023/12/17 01:37:24;;;;;;;9.83;6.40;;;2.70;84.00;;;4.84;59.55;99878.88;5030715;28;20512;-51
2023/12/17 01:39:51;;;;;;;8.93;5.60;;;2.70;84.40;;;4.81;59.15;99873.75;5031920;28;20488;-50
2023/12/17 01:42:19;;;;;;;8.33;5.30;;;2.80;85.00;;;4.84;58.91;99873.59;5028785;28;20048;-52
2023/12/17 01:44:46;;;;;;;10.87;6.00;;;2.80;84.90;;;4.87;59.45;99869.97;5030269;28;20041;-51
2023/12/17 01:47:14;;;;;;;6.73;4.40;;;2.90;84.50;;;4.86;58.73;99869.09;5029902;28;20394;-52
2023/12/17 01:49:42;;;;;;;5.27;3.80;;;2.80;83.90;;;4.83;59.15;99877.19;5030008;28;20045;-51
2023/12/17 01:52:10;;;;;;;6.13;4.23;;;2.80;85.00;;;4.82;59.64;99877.25;5029150;28;20042;-49
2023/12/17 01:54:39;;;;;;;6.60;3.60;;;2.80;85.60;;;4.84;59.63;99867.47;5026816;28;20433;-48
2023/12/17 01:57:06;;;;;;;5.97;3.93;;;2.80;85.60;;;4.84;59.89;99878.03;5026607;28;20398;-51
2023/12/17 01:59:35;;;;;;;7.47;4.90;;;2.80;86.10;;;4.87;59.81;99867.34;5030394;28;20041;-52
2023/12/17 02:02:03;;;;;;;6.83;3.53;;;2.90;87.00;;;4.90;60.16;99862.78;5028943;28;20049;-50
2023/12/17 02:04:31;;;;;;;6.20;4.03;;;2.90;85.80;;;4.94;59.97;99871.38;5030434;28;20042;-52
2023/12/17 02:06:59;;;;;;;6.10;3.67;;;3.00;85.70;;;4.98;60.24;99874.75;5012114;28;20493;-51
2023/12/17 02:09:27;;;;;;;8.57;4.60;;;3.10;85.50;;;5.00;59.78;99878.16;5037206;28;20049;-51
2023/12/17 02:11:54;;;;;;;7.60;4.00;;;3.10;85.10;;;5.01;59.96;99874.63;5029900;28;20029;-49
2023/12/17 02:14:22;;;;;;;8.47;4.00;;;3.10;85.20;;;5.05;60.07;99876.19;5030097;28;20041;-51
2023/12/17 02:16:49;;;;;;;8.47;4.13;;;3.10;84.80;;;5.05;59.38;99878.81;5028569;28;20045;-52
2023/12/17 02:19:17;;;;;;;5.20;4.20;;;3.10;85.10;;;5.08;59.44;99884.81;5037623;28;20052;-53
2023/12/17 02:21:45;;;;;;;7.37;3.87;;;3.10;84.80;;;5.09;59.83;99878.59;5034475;28;20405;-49
2023/12/17 02:24:12;;;;;;;7.33;4.30;;;3.10;84.10;;;5.08;59.59;99876.06;5033991;28;20045;-49
2023/12/17 02:26:42;;;;;;;6.83;4.77;;;3.10;84.40;;;5.05;59.21;99878.81;5033013;28;20196;-49
2023/12/17 02:29:10;;;;;;;6.17;4.63;;;3.00;84.50;;;5.00;59.38;99886.97;5039221;28;20420;-48
2023/12/17 02:31:37;;;;;;;5.80;4.43;;;2.90;84.80;;;4.95;59.78;99888.09;5032827;28;20493;-52
2023/12/17 02:34:05;;;;;;;8.37;4.40;;;2.90;85.00;;;4.85;59.87;99891.16;5040838;28;20491;-49
2023/12/17 02:36:33;;;;;;;8.23;5.63;;;2.70;85.10;;;4.78;59.77;99888.88;5033279;28;20056;-51
2023/12/17 02:39:01;;;;;;;8.50;4.97;;;2.60;85.60;;;4.72;60.17;99890.84;5033775;28;20050;-50
2023/12/17 02:41:28;;;;;;;7.30;4.70;;;2.60;86.40;;;4.73;60.29;99889.94;5026361;28;20049;-52
2023/12/17 02:43:56;;;;;;;7.13;4.83;;;2.60;86.30;;;4.69;60.22;99876.94;5033779;28;20065;-50
2023/12/17 02:46:24;;;;;;;6.00;5.23;;;2.60;86.20;;;4.64;60.32;99868.41;5033880;28;20071;-50
2023/12/17 02:48:51;;;;;;;7.70;4.87;;;2.50;86.40;;;4.60;59.71;99877.38;5037406;28;20048;-52
2023/12/17 02:51:19;;;;;;;7.57;5.27;;;2.50;86.90;;;4.58;60.27;99863.41;5033682;28;20045;-51
2023/12/17 02:53:47;;;;;;;8.03;4.93;;;2.50;86.20;;;4.54;59.74;99866.16;5033678;28;20053;-51
2023/12/17 02:56:14;;;;;;;7.00;4.70;;;2.50;86.80;;;4.53;60.06;99867.06;5032690;28;20052;-52
2023/12/17 02:58:42;;;;;;;6.13;4.30;;;2.50;87.30;;;4.57;59.93;99869.59;5035168;28;20048;-49
2023/12/17 03:01:10;;;;;;;6.07;4.27;;;2.50;87.40;;;4.64;59.95;99871.03;5035502;28;20049;-52
2023/12/17 03:03:37;;;;;;;8.13;4.17;;;2.60;86.50;;;4.62;59.69;99867.59;5032060;28;20402;-49
2023/12/17 03:06:05;;;;;;;5.30;3.90;;;2.60;86.50;;;4.65;59.63;99859.53;5032715;28;20045;-52
2023/12/17 03:08:33;;;;;;;6.67;4.63;;;2.70;87.00;;;4.68;60.56;99859.41;5034721;28;20049;-51
2023/12/17 03:11:00;;;;;;;6.50;4.07;;;2.60;86.80;;;4.71;59.64;99859.25;5037062;28;20052;-49
2023/12/17 03:13:30;;;;;;;5.63;4.07;;;2.70;86.70;;;4.76;59.72;99861.69;5033313;28;20049;-50
2023/12/17 03:15:57;;;;;;;9.13;5.97;;;2.80;86.20;;;4.80;59.56;99850.06;5032626;28;20048;-49
2023/12/17 03:18:25;;;;;;;8.13;4.13;;;2.80;85.90;;;4.83;59.96;99856.06;5032765;28;20053;-48
2023/12/17 03:20:53;;;;;;;7.80;4.43;;;2.90;85.30;;;4.85;59.83;99846.28;5038194;28;20193;-50
2023/12/17 03:23:21;;;;;;;7.53;4.47;;;2.90;85.20;;;4.86;59.41;99844.50;5031697;28;20053;-50
2023/12/17 03:25:48;;;;;;;5.73;4.10;;;2.90;84.90;;;4.86;60.01;99841.88;5032618;28;20052;-48
2023/12/17 03:28:16;;;;;;;7.20;4.30;;;2.80;85.00;;;4.84;59.52;99835.81;5033079;28;20683;-52
2023/12/17 03:30:43;;;;;;;6.57;4.00;;;2.80;85.70;;;4.84;59.93;99830.53;5033373;28;20045;-53
2023/12/17 03:33:11;;;;;;;6.83;4.23;;;2.80;85.40;;;4.84;60.17;99828.72;5032593;28;20052;-52
2023/12/17 03:35:39;;;;;;;7.43;4.80;;;2.80;85.70;;;4.82;59.87;99813.91;5036717;28;20046;-49
2023/12/17 03:38:06;;;;;;;6.93;4.77;;;2.70;85.10;;;4.75;60.06;99808.06;5032419;28;20045;-52
2023/12/17 03:40:34;;;;;;;9.23;5.17;;;2.70;86.00;;;4.70;59.63;99802.13;5032765;28;20497;-50
2023/12/17 03:43:02;;;;;;;6.53;4.70;;;2.60;86.30;;;4.67;59.74;99804.91;5032519;28;20433;-51
2023/12/17 03:45:31;;;;;;;9.30;4.57;;;2.60;86.60;;;4.63;60.05;99803.34;5036061;28;20045;-51
2023/12/17 03:47:59;;;;;;;7.70;5.20;;;2.50;87.10;;;4.61;60.02;99799.91;5030422;28;20393;-51
2023/12/17 03:50:26;;;;;;;9.60;5.70;;;2.50;87.20;;;4.60;60.17;99803.50;5032545;28;20046;-51
2023/12/17 03:52:54;;;;;;;8.10;5.53;;;2.50;87.60;;;4.58;60.83;99805.34;5032409;28;20041;-52
2023/12/17 03:55:22;;;;;;;7.60;5.00;;;2.50;87.40;;;4.54;60.36;99805.47;5035673;28;20373;-51
2023/12/17 03:57:49;;;;;;;7.50;5.03;;;2.50;87.90;;;4.51;60.40;99802.97;5031055;28;20042;-49
2023/12/17 04:00:17;;;;;;;8.20;5.30;;;2.40;87.70;;;4.51;60.73;99804.75;5030571;28;20060;-49
2023/12/17 04:02:45;;;;;;;8.33;4.93;;;2.40;88.00;;;4.50;60.26;99803.06;5032418;28;20049;-51
2023/12/17 04:05:12;;;;;;;7.03;4.67;;;2.40;88.20;;;4.48;60.12;99807.56;5034813;28;20052;-52
2023/12/17 04:07:40;;;;;;;6.87;5.13;;;2.40;87.90;;;4.46;60.83;99806.75;5031603;28;20044;-51
2023/12/17 04:10:08;;;;;;;6.50;4.60;;;2.40;88.30;;;4.43;60.50;99807.75;5032149;28;20516;-52
2023/12/17 04:12:36;;;;;;;7.57;5.47;;;2.40;88.30;;;4.42;60.36;99803.41;5024036;28;20053;-53
2023/12/17 04:15:04;;;;;;;12.47;4.63;;;2.30;88.40;;;4.42;60.60;99802.53;5034680;28;20049;-53
2023/12/17 04:17:32;;;;;;;6.33;4.70;;;2.40;88.50;;;4.40;60.54;99804.38;5031718;28;20440;-50
2023/12/17 04:19:59;;;;;;;6.47;4.80;;;2.40;88.50;;;4.38;60.77;99800.97;5031847;28;20049;-52
2023/12/17 04:22:27;;;;;;;7.17;4.57;;;2.30;88.60;;;4.36;61.18;99800.19;5031795;28;20045;-52
2023/12/17 04:24:54;;;;;;;9.57;5.20;;;2.30;89.20;;;4.33;61.18;99795.91;5033981;28;20064;-49
2023/12/17 04:27:22;;;;;;;7.13;5.20;;;2.30;89.00;;;4.32;61.13;99802.09;5031392;28;20397;-48
2023/12/17 04:29:50;;;;;;;10.57;4.80;;;2.30;89.40;;;4.35;61.06;99804.59;5031808;28;20050;-52
2023/12/17 04:32:17;;;;;;;9.07;4.83;;;2.40;89.70;;;4.41;61.40;99816.66;5031551;28;20420;-48
2023/12/17 04:34:45;;;;;;;10.00;4.93;;;2.40;89.10;;;4.39;61.46;99805.34;5031573;28;20185;-50
2023/12/17 04:37:12;;;;;;;7.87;4.57;;;2.40;89.10;;;4.43;60.89;99799.00;5030345;28;20053;-51
2023/12/17 04:39:40;;;;;;;7.77;4.93;;;2.50;89.30;;;4.42;61.59;99806.06;5033300;28;20062;-52
2023/12/17 04:42:08;;;;;;;6.57;4.60;;;2.40;89.30;;;4.44;60.88;99796.28;5031189;28;20107;-51
2023/12/17 04:44:35;;;;;;;8.17;4.93;;;2.50;89.30;;;4.46;61.67;99794.44;5031221;28;20038;-51
2023/12/17 04:47:04;;;;;;;9.53;5.87;;;2.50;89.30;;;4.47;61.77;99798.78;5030747;28;20052;-50
2023/12/17 04:49:32;;;;;;;7.63;4.53;;;2.50;89.10;;;4.48;61.04;99795.22;5014947;28;20056;-48
2023/12/17 04:51:59;;;;;;;8.47;5.53;;;2.50;88.90;;;4.50;60.94;99793.38;5030201;28;20056;-51
2023/12/17 04:54:27;;;;;;;7.13;4.53;;;2.50;88.80;;;4.51;61.23;99787.16;5031012;28;20052;-52
2023/12/17 04:56:55;;;;;;;7.13;4.40;;;2.50;88.70;;;4.52;61.53;99794.16;5028206;28;20049;-49
2023/12/17 04:59:24;;;;;;;7.87;4.50;;;2.50;88.70;;;4.53;61.18;99792.34;5029912;28;20045;-50
2023/12/17 05:01:51;;;;;;;7.73;4.33;;;2.50;88.80;;;4.58;61.27;99798.28;5030680;28;20046;-52
2023/12/17 05:04:19;;;;;;;7.10;4.60;;;2.60;89.20;;;4.62;60.99;99801.66;5030884;28;20531;-50
2023/12/17 05:06:47;;;;;;;10.80;5.07;;;2.60;88.80;;;4.69;61.06;99803.06;5030454;28;20041;-52
2023/12/17 05:09:15;;;;;;;7.47;5.13;;;2.70;88.50;;;4.73;61.06;99802.84;5031160;28;20064;-53
2023/12/17 05:11:43;;;;;;;7.30;5.13;;;2.80;87.40;;;4.72;60.68;99793.22;5031052;28;20044;-51
2023/12/17 05:14:11;;;;;;;6.73;4.83;;;2.80;86.90;;;4.74;60.52;99779.97;5031289;28;20057;-50
2023/12/17 05:16:40;;;;;;;6.90;5.00;;;2.80;87.00;;;4.71;60.34;99775.69;5030073;28;20389;-49
2023/12/17 05:19:09;;;;;;;8.70;5.20;;;2.70;86.60;;;4.64;60.58;99765.50;5030770;28;20041;-48
2023/12/17 05:21:37;;;;;;;12.20;7.00;;;2.60;86.30;;;4.58;60.65;99771.06;5030617;28;20049;-49
2023/12/17 05:24:05;;;;;;;12.27;6.67;;;2.50;87.20;;;4.52;60.50;99762.50;5030730;28;20517;-49
2023/12/17 05:26:33;;;;;;;12.33;6.53;;;2.40;87.60;;;4.49;60.99;99761.78;5036278;28;20037;-53
2023/12/17 05:29:00;;;;;;;13.00;6.17;;;2.40;87.50;;;4.46;60.74;99754.88;5030605;28;20057;-50
2023/12/17 05:31:28;;;;;;;9.77;6.23;;;2.40;87.80;;;4.44;60.92;99756.72;5037270;28;20086;-52
2023/12/17 05:33:56;;;;;;;9.80;4.90;;;2.30;88.60;;;4.48;60.88;99760.09;5030808;28;20041;-50
2023/12/17 05:36:24;;;;;;;8.33;4.93;;;2.40;88.90;;;4.52;60.47;99761.66;5029769;28;20045;-51
2023/12/17 05:38:51;;;;;;;6.97;5.10;;;2.50;87.90;;;4.53;60.95;99761.56;5030398;28;20041;-52
2023/12/17 05:41:19;;;;;;;8.87;4.80;;;2.50;87.80;;;4.56;60.62;99762.38;5035954;28;20045;-52
2023/12/17 05:43:47;;;;;;;8.43;6.27;;;2.60;87.80;;;4.60;60.95;99766.56;5030481;28;20041;-48
2023/12/17 05:46:14;;;;;;;6.43;4.87;;;2.60;87.80;;;4.62;61.19;99770.00;5029891;28;20045;-52
2023/12/17 05:48:42;;;;;;;6.93;4.83;;;2.60;87.10;;;4.63;60.47;99767.25;5028805;28;20033;-50
2023/12/17 05:51:10;;;;;;;9.73;5.87;;;2.60;87.10;;;4.62;60.70;99770.84;5037303;28;20109;-51
2023/12/17 05:53:37;;;;;;;6.50;4.63;;;2.60;86.90;;;4.61;61.12;99771.75;5029740;28;20046;-52
2023/12/17 05:56:13;;;;;;;7.03;4.70;;;2.60;87.50;;;4.67;60.63;99773.25;5030060;28;20052;-47
2023/12/17 05:58:41;;;;;;;8.60;6.50;;;2.70;87.40;;;4.68;61.05;99775.81;5029891;28;20045;-50
2023/12/17 06:01:09;;;;;;;11.07;6.23;;;2.70;87.00;;;4.70;59.83;99779.25;5027940;28;20050;-51
2023/12/17 06:03:38;;;;;;;9.83;5.43;;;2.70;86.80;;;4.70;59.95;99787.16;5029913;28;20049;-48
2023/12/17 06:06:07;;;;;;;8.53;5.50;;;2.70;86.50;;;4.72;60.72;99781.81;5029860;28;20044;-48
2023/12/17 06:08:35;;;;;;;8.17;5.43;;;2.70;86.90;;;4.71;60.03;99791.53;5028930;28;20052;-53
2023/12/17 06:11:03;;;;;;;7.87;5.23;;;2.70;85.90;;;4.72;60.22;99781.81;5036145;28;20041;-53
2023/12/17 06:13:31;;;;;;;8.87;5.67;;;2.70;85.60;;;4.71;60.19;99786.25;5030100;28;20046;-51
2023/12/17 06:16:01;;;;;;;6.37;5.23;;;2.70;85.80;;;4.71;59.94;99790.63;5029978;28;20045;-52
2023/12/17 06:18:28;;;;;;;8.40;5.47;;;2.80;85.00;;;4.70;59.93;99796.88;5028622;28;20043;-49
2023/12/17 06:20:56;;;;;;;6.37;4.93;;;2.70;85.10;;;4.67;60.46;99803.16;5035706;28;20492;-51
2023/12/17 06:23:24;;;;;;;10.00;5.43;;;2.60;85.10;;;4.63;59.93;99801.56;5029933;28;20045;-51
2023/12/17 06:25:52;;;;;;;9.10;5.47;;;2.60;84.90;;;4.58;59.50;99805.34;5029574;28;20516;-49
2023/12/17 06:28:21;;;;;;;8.63;5.83;;;2.50;85.40;;;4.53;59.79;99798.47;5028646;28;20413;-49
2023/12/17 06:30:48;;;;;;;9.23;6.50;;;2.40;85.40;;;4.49;59.59;99793.44;5025477;28;20040;-51
2023/12/17 06:33:16;;;;;;;7.90;5.73;;;2.40;86.10;;;4.44;60.43;99795.41;5029622;28;20056;-51
2023/12/17 06:35:45;;;;;;;10.33;5.80;;;2.30;86.50;;;4.39;60.74;99794.78;5033303;28;20362;-52
2023/12/17 06:38:13;;;;;;;9.37;5.63;;;2.20;87.50;;;4.33;60.38;99790.63;5029820;28;20148;-51
2023/12/17 06:40:40;;;;;;;8.50;5.70;;;2.20;87.50;;;4.33;60.44;99788.00;5029883;28;20050;-52
2023/12/17 06:43:08;;;;;;;10.57;6.60;;;2.20;87.60;;;4.32;60.81;99789.78;5029860;28;20497;-51
2023/12/17 06:45:36;;;;;;;10.37;6.87;;;2.20;88.10;;;4.36;60.97;99795.75;5033937;28;20408;-52
2023/12/17 06:48:03;;;;;;;10.03;6.40;;;2.30;87.90;;;4.37;60.88;99799.28;5028348;28;20042;-49
2023/12/17 06:50:32;;;;;;;10.73;6.73;;;2.30;87.60;;;4.37;60.45;99794.00;5029895;28;20051;-52
2023/12/17 06:53:00;;;;;;;9.67;6.50;;;2.30;87.20;;;4.37;59.92;99792.22;5029924;28;20042;-50
2023/12/17 06:55:28;;;;;;;7.63;5.90;;;2.30;86.90;;;4.35;60.73;99786.16;5033597;28;20045;-49
2023/12/17 06:57:56;;;;;;;10.50;6.47;;;2.30;87.10;;;4.34;60.07;99787.94;5029486;28;20497;-51
2023/12/17 07:00:23;;;;;;;7.67;6.03;;;2.30;87.00;;;4.34;60.16;99787.06;5027347;28;20485;-52
2023/12/17 07:02:51;;;;;;;6.37;5.57;;;2.30;87.20;;;4.36;60.36;99790.47;5026491;28;20045;-53
2023/12/17 07:05:19;;;;;;;9.10;6.30;;;2.30;87.00;;;4.38;60.78;99786.03;5032458;28;20048;-52
2023/12/17 07:07:48;;;;;;;8.20;5.73;;;2.30;86.90;;;4.40;60.29;99791.22;5032941;28;20421;-49
2023/12/17 07:10:16;;;;;;;8.13;5.30;;;2.40;86.80;;;4.42;59.99;99794.63;5033296;28;20464;-50
2023/12/17 07:12:43;;;;;;;6.80;5.40;;;2.40;86.90;;;4.45;60.23;99791.88;5033303;28;20157;-52
2023/12/17 07:15:11;;;;;;;8.23;5.33;;;2.50;86.60;;;4.42;60.34;99794.63;5034215;28;20049;-49
2023/12/17 07:17:39;;;;;;;9.60;5.90;;;2.40;86.60;;;4.42;60.36;99786.72;5034695;28;20053;-51
2023/12/17 07:20:11;;;;;;;8.70;5.13;;;2.40;86.60;;;4.46;60.76;99793.56;5033445;28;20493;-52
2023/12/17 07:22:38;;;;;;;8.67;5.43;;;2.40;86.80;;;4.47;60.52;99793.50;5033605;28;20417;-49
2023/12/17 07:25:07;;;;;;;9.13;5.97;;;2.50;86.80;;;4.49;60.76;99791.63;5032743;28;20046;-50
2023/12/17 07:27:34;;;;;;;8.17;5.70;;;2.50;86.00;;;4.50;60.21;99789.88;5035176;28;20050;-53
2023/12/17 07:30:02;;;;;;;9.97;6.67;;;2.50;85.30;;;4.44;60.50;99783.09;5032924;28;20422;-52
2023/12/17 07:32:31;;;;;;;9.20;6.03;;;2.40;86.10;;;4.43;60.26;99784.00;5035143;28;20052;-54
2023/12/17 07:34:59;;;;;;;7.83;5.20;;;2.30;86.00;;;4.38;59.99;99774.59;5032527;28;20041;-50
2023/12/17 07:37:26;;;;;;;12.30;6.53;;;2.30;86.80;;;4.36;60.15;99774.66;5029407;28;20037;-48
2023/12/17 07:39:54;;;;;;;10.63;6.20;;;2.30;87.00;;;4.39;60.37;99771.91;5022361;28;20049;-50
2023/12/17 07:42:21;;;;;;;9.47;6.47;;;2.40;87.10;;;4.39;60.38;99773.69;5031689;28;20037;-51
2023/12/17 07:44:50;;;;;;;7.67;4.40;;;2.40;87.10;;;4.41;60.61;99782.38;5031529;28;20493;-52
2023/12/17 07:47:18;;;;;;;5.93;4.30;;;2.40;87.00;;;4.44;60.69;99784.84;5032903;28;20933;-51
2023/12/17 07:49:45;;;;;;;6.53;4.50;;;2.50;87.20;;;4.49;61.10;99777.59;5031827;28;20501;-50
2023/12/17 07:52:15;;;;;;;8.70;4.40;;;2.50;86.70;;;4.51;60.39;99781.03;5032537;28;20048;-51
2023/12/17 07:54:42;;;;;;;8.73;4.57;;;2.50;86.70;;;4.52;60.34;99785.38;5030633;28;20079;-50
2023/12/17 07:57:10;;;;;;;6.07;4.13;;;2.50;86.90;;;4.56;61.03;99781.69;5031266;28;20057;-52
2023/12/17 07:59:38;;;;;;;7.40;4.90;;;2.60;87.10;;;4.61;60.99;99781.44;5031493;28;20041;-52
2023/12/17 08:02:06;;;;;;;7.63;4.50;;;2.70;86.60;;;4.66;60.90;99774.19;5031262;28;20056;-51
2023/12/17 08:04:36;;;;;;;6.30;4.37;;;2.80;86.00;;;4.65;60.49;99775.97;5035650;28;20467;-48
2023/12/17 08:07:04;;;;;;;7.40;4.90;;;2.70;85.80;;;4.67;60.32;99768.84;5031668;28;20045;-50
2023/12/17 08:09:35;;;;;;;6.50;4.13;;;2.70;85.90;;;4.66;60.56;99776.81;5031362;28;20040;-52
2023/12/17 08:12:03;;;;;;;6.17;4.43;;;2.70;86.10;;;4.67;60.60;99787.31;5031297;28;20053;-49
2023/12/17 08:14:30;;;;;;;7.10;4.77;;;2.70;86.20;;;4.67;60.72;99784.69;5031092;28;20049;-53
2023/12/17 08:16:59;;;;;;;7.03;4.63;;;2.70;86.60;;;4.70;60.12;99779.25;5023289;28;20416;-48
2023/12/17 08:19:27;;;;;;;7.97;5.20;;;2.70;86.80;;;4.75;60.69;99779.03;5030163;28;20497;-52
2023/12/17 08:21:55;;;;;;;5.33;3.77;;;2.80;86.50;;;4.80;60.19;99776.19;5031288;28;20041;-51
2023/12/17 08:24:24;;;;;;;6.53;4.03;;;2.80;86.20;;;4.82;60.60;99783.09;5030575;28;20486;-48
2023/12/17 08:26:54;;;;;;;7.27;4.57;;;2.90;85.60;;;4.84;60.97;99783.00;5030830;28;20045;-49
2023/12/17 08:29:22;;;;;;;8.67;4.40;;;2.90;85.60;;;4.86;60.75;99791.72;5031154;28;20132;-48
2023/12/17 08:31:50;;;;;;;11.87;7.43;;;2.90;86.00;;;4.87;60.66;99783.72;5030397;28;20068;-48
2023/12/17 08:34:17;;;;;;;12.60;8.83;;;2.90;85.80;;;4.91;61.01;99787.09;5030774;28;20516;-50
2023/12/17 08:36:45;;;;;;;7.40;5.70;;;3.00;86.10;;;4.96;61.18;99786.84;5030640;28;20115;-49
2023/12/17 08:39:13;;;;;;;8.17;5.00;;;3.10;86.00;;;5.00;60.35;99784.00;5030818;28;20523;-52
2023/12/17 08:41:40;;;;;;;9.10;5.43;;;3.10;85.80;;;5.04;61.02;99782.94;5038390;28;20163;-53
2023/12/17 08:44:08;;;;;;;7.47;5.40;;;3.20;85.60;;;5.08;60.35;99787.13;5030232;28;20527;-53
2023/12/17 08:46:36;;;;;;;9.23;7.13;;;3.20;85.60;;;5.12;60.19;99785.19;5030119;28;20049;-48
2023/12/17 08:49:04;;;;;;;7.73;6.07;;;3.20;85.60;;;5.16;60.33;99777.97;5030450;28;20038;-52
2023/12/17 08:51:32;;;;;;;24.53;13.73;;;3.30;85.70;;;5.19;60.46;99777.81;5036310;28;20056;-53
2023/12/17 08:54:00;;;;;;;20.63;13.43;;;3.30;85.60;;;5.22;60.82;99775.88;5031052;28;20386;-51
2023/12/17 08:56:27;;;;;;;11.50;8.90;;;3.30;85.40;;;5.25;60.65;99777.50;5030023;28;20045;-51
2023/12/17 08:58:55;;;;;;;6.87;5.10;;;3.40;85.10;;;5.30;61.11;99776.34;5030032;28;20061;-51
2023/12/17 09:01:22;;;;;;;7.60;5.07;;;3.40;85.20;;;5.33;60.79;99777.97;5034828;28;20052;-52
2023/12/17 09:03:50;;;;;;;5.83;4.07;;;3.50;85.30;;;5.36;60.65;99777.00;5030609;28;20042;-51
2023/12/17 09:06:18;;;;;;;12.20;7.90;;;3.50;85.20;;;5.37;60.04;99770.78;5030181;28;20520;-51
2023/12/17 09:08:46;;;;;;;20.27;12.50;;;3.50;85.30;;;5.40;60.36;99776.75;5029968;28;20048;-49
2023/12/17 09:11:13;;;;;;;24.73;16.77;;;3.60;85.30;;;5.43;60.50;99778.38;5029872;28;20040;-52
2023/12/17 09:13:41;;;;;;;17.07;12.40;;;3.60;85.30;;;5.44;60.10;99780.09;5033126;28;20409;-53
2023/12/17 09:16:09;;;;;;;11.23;8.13;;;3.60;84.70;;;5.48;60.46;99784.31;5027920;28;20049;-51
2023/12/17 09:18:38;;;;;;;8.83;5.70;;;3.70;84.70;;;5.51;60.64;99776.22;5029217;28;20048;-52
2023/12/17 09:21:06;;;;;;;8.33;6.67;;;3.70;84.40;;;5.55;60.35;99776.94;5031153;28;20489;-52
2023/12/17 09:23:34;;;;;;;11.00;7.17;;;3.70;84.30;;;5.57;60.54;99772.44;5030711;28;20053;-50
2023/12/17 09:26:02;;;;;;;9.63;7.17;;;3.70;84.20;;;5.61;60.57;99768.69;5031134;28;20556;-50
2023/12/17 09:28:31;;;;;;;10.30;7.90;;;3.80;84.20;;;5.63;59.99;99772.97;5035000;28;20044;-51
2023/12/17 09:31:01;;;;;;;7.50;6.30;;;3.80;84.50;;;5.64;60.97;99776.44;5030677;28;20062;-51
2023/12/17 09:33:28;;;;;;;7.43;4.77;;;3.80;84.50;;;5.66;60.81;99770.19;5032162;28;20048;-47
2023/12/17 09:35:56;;;;;;;6.97;4.70;;;3.80;85.00;;;5.69;60.29;99766.50;5030548;28;20496;-50
2023/12/17 09:38:24;;;;;;;8.63;5.70;;;3.80;85.20;;;5.70;60.29;99771.72;5031128;28;20053;-52
2023/12/17 09:40:52;;;;;;;7.77;5.60;;;3.90;85.20;;;5.72;60.43;99764.56;5029435;28;20049;-49
2023/12/17 09:43:24;;;;;;;7.07;5.73;;;3.90;85.30;;;5.75;60.65;99768.84;5034226;28;20041;-51
2023/12/17 09:45:52;;;;;;;8.43;6.80;;;3.90;85.60;;;5.78;60.42;99773.09;5029150;28;20056;-49
2023/12/17 09:48:20;;;;;;;9.23;6.53;;;3.90;85.50;;;5.81;60.85;99775.59;5030009;28;20196;-50
2023/12/17 09:50:47;;;;;;;7.80;5.90;;;4.00;85.30;;;5.82;60.77;99778.16;5030609;28;20409;-52
2023/12/17 09:53:15;;;;;;;8.37;6.13;;;4.00;85.50;;;5.87;60.99;99785.84;5035426;28;20041;-52
2023/12/17 09:55:43;;;;;;;8.73;6.63;;;4.10;85.70;;;5.90;60.48;99783.06;5029873;28;20060;-51
2023/12/17 09:58:10;;;;;;;8.20;6.60;;;4.10;86.40;;;5.91;60.27;99785.63;5029038;28;20076;-51
2023/12/17 10:00:38;;;;;;;10.30;6.80;;;4.10;86.80;;;5.94;60.60;99775.84;5029337;28;20429;-49
2023/12/17 10:03:12;;;;;;;8.77;7.00;;;4.10;86.90;;;5.97;61.02;99775.69;5034427;28;20053;-50
2023/12/17 10:05:40;;;;;;;12.48;7.50;;;4.20;87.00;;;5.97;61.30;99781.84;5011182;28;20050;-50
2023/12/17 10:08:08;;;;;;;7.63;6.47;;;4.20;87.00;;;5.99;61.12;99777.34;5030453;28;20045;-48
2023/12/17 10:10:35;;;;;;;11.87;7.27;;;4.20;87.00;;;6.00;60.93;99771.09;5029799;28;20045;-52
2023/12/17 10:13:03;;;;;;;10.00;6.90;;;4.20;86.30;;;6.03;61.15;99759.50;5030364;28;20072;-50
2023/12/17 10:15:37;;;;;;;11.23;6.80;;;4.20;86.20;;;6.02;61.24;99757.81;5030382;28;20037;-49
2023/12/17 10:18:06;;;;;;;10.30;6.43;;;4.20;86.50;;;6.03;61.18;99752.44;5033712;28;20053;-49
2023/12/17 10:20:34;;;;;;;9.40;6.87;;;4.30;86.00;;;6.05;60.53;99745.28;5030302;28;20049;-52
2023/12/17 10:23:03;;;;;;;10.77;6.63;;;4.20;86.00;;;6.07;61.22;99746.03;5028811;28;20060;-48
2023/12/17 10:25:31;;;;;;;12.93;7.53;;;4.30;85.80;;;6.09;60.91;99740.69;5029927;28;20420;-50
2023/12/17 10:28:00;;;;;;;10.20;7.50;;;4.30;86.20;;;6.13;60.52;99736.94;5033095;28;20105;-51
2023/12/17 10:30:37;;;;;;;14.00;7.70;;;4.30;86.10;;;6.15;61.36;99734.22;5030120;28;20041;-49
2023/12/17 10:37:44;;;;;;;10.23;7.03;;;4.40;86.60;;;6.20;60.83;99722.41;5027638;28;20254;-52